Time;durP1;ratioP1;P1;durP2;ratioP2;P2;SDS_P1;SDS_P2;PMS_P1;PMS_P2;Temp;Humidity;BMP_temperature;BMP_pressure;BME280_temperature;BME280_humidity;BME280_pressure;Samples;Min_cycle;Max_cycle;Signal;HPM_P1;HPM_P2
2021/07/06 00:10:03;;;;;;;13.38;11.05;;;;;;;19.93;100.00;99979.54;713931;1189;113833;-81
2021/07/06 00:25:06;;;;;;;12.35;10.18;;;;;;;19.82;100.00;99988.12;713840;1200;115128;-82
2021/07/06 00:40:09;;;;;;;15.50;11.55;;;;;;;19.88;100.00;99982.80;713846;1193;114773;-81
2021/07/06 00:55:11;;;;;;;15.08;12.23;;;;;;;19.66;100.00;99995.42;713637;1205;114633;-81
2021/07/06 01:10:14;;;;;;;15.25;11.13;;;;;;;19.61;100.00;99989.89;713746;1177;113878;-81
2021/07/06 01:25:16;;;;;;;18.60;12.50;;;;;;;19.43;100.00;100009.09;713869;1200;115656;-81
2021/07/06 01:40:21;;;;;;;22.05;13.83;;;;;;;19.33;100.00;99998.82;713637;1183;114038;-81
2021/07/06 01:55:29;;;;;;;20.68;14.35;;;;;;;19.28;100.00;99998.59;713848;1200;114420;-81
2021/07/06 02:10:33;;;;;;;19.93;14.43;;;;;;;19.07;100.00;100011.02;714267;1175;114111;-81
2021/07/06 02:25:35;;;;;;;15.43;11.73;;;;;;;18.87;100.00;100012.70;714143;1200;114896;-81
2021/07/06 02:40:38;;;;;;;15.63;12.93;;;;;;;18.79;100.00;100032.28;715370;1199;114785;-81
2021/07/06 02:55:41;;;;;;;21.23;15.00;;;;;;;18.78;100.00;100036.79;732456;1177;114465;-81
2021/07/06 03:10:43;;;;;;;21.80;14.68;;;;;;;18.74;100.00;100051.48;715970;1200;114245;-81
2021/07/06 03:25:45;;;;;;;18.60;13.93;;;;;;;18.66;100.00;100064.08;714271;1200;115397;-75
2021/07/06 03:40:48;;;;;;;19.77;14.57;;;;;;;18.63;100.00;100075.91;714245;1199;114202;-76
2021/07/06 03:55:50;;;;;;;23.33;16.98;;;;;;;18.93;100.00;100087.19;713938;1202;115831;-76
2021/07/06 04:10:52;;;;;;;18.35;15.20;;;;;;;19.16;100.00;100096.72;713908;1200;115345;-76
2021/07/06 04:25:54;;;;;;;24.23;15.98;;;;;;;19.70;100.00;100102.28;713926;1200;115045;-76
2021/07/06 04:40:57;;;;;;;18.70;14.85;;;;;;;20.10;100.00;100107.75;713795;1202;115078;-76
2021/07/06 04:56:00;;;;;;;21.20;16.60;;;;;;;20.47;100.00;100116.19;713787;1199;115040;-76
2021/07/06 05:11:03;;;;;;;22.05;16.70;;;;;;;20.91;100.00;100127.27;713875;1199;114141;-74
2021/07/06 05:26:05;;;;;;;20.10;15.33;;;;;;;21.48;100.00;100145.39;713747;1177;115445;-74
2021/07/06 05:41:08;;;;;;;18.13;15.73;;;;;;;21.82;100.00;100164.80;713801;1178;114200;-76
2021/07/06 05:56:11;;;;;;;18.75;14.65;;;;;;;22.41;100.00;100169.00;713924;1178;114657;-87
2021/07/06 06:11:13;;;;;;;16.08;12.70;;;;;;;22.95;100.00;100179.28;714341;1200;114204;-80
2021/07/06 06:26:15;;;;;;;9.85;8.50;;;;;;;23.42;100.00;100170.80;714079;1177;114032;-79
2021/07/06 06:41:17;;;;;;;7.93;7.13;;;;;;;23.54;100.00;100186.94;714076;1184;114801;-79
2021/07/06 06:56:19;;;;;;;10.85;7.23;;;;;;;24.24;100.00;100188.34;714268;1188;113850;-80
2021/07/06 07:11:21;;;;;;;6.70;5.90;;;;;;;24.62;100.00;100189.84;714217;1200;113963;-82
2021/07/06 07:26:23;;;;;;;6.63;5.77;;;;;;;25.12;100.00;100190.50;714498;1200;113923;-80
2021/07/06 07:41:26;;;;;;;6.68;6.00;;;;;;;25.30;96.64;100202.95;714101;1200;114611;-81
2021/07/06 07:56:29;;;;;;;5.63;4.90;;;;;;;26.89;93.66;100189.05;714133;1189;113608;-76
2021/07/06 08:11:31;;;;;;;5.48;4.98;;;;;;;27.92;90.75;100211.15;714214;1205;114763;-77
2021/07/06 08:26:35;;;;;;;6.53;5.33;;;;;;;28.71;87.97;100201.70;714141;1200;114446;-75
2021/07/06 08:41:40;;;;;;;4.83;4.20;;;;;;;28.65;82.48;100206.25;714400;1199;115381;-75
2021/07/06 08:56:42;;;;;;;6.75;4.80;;;;;;;29.48;81.81;100209.47;715212;1200;118572;-76
2021/07/06 09:12:06;;;;;;;5.57;4.23;;;;;;;29.29;79.60;100206.42;713980;1199;113715;-76
2021/07/06 09:27:36;;;;;;;3.87;3.17;;;;;;;30.00;75.31;100224.03;714003;1199;113979;-76
2021/07/06 09:42:38;;;;;;;3.60;3.18;;;;;;;30.35;71.69;100228.69;714125;1200;114153;-76
2021/07/06 09:57:41;;;;;;;3.35;3.05;;;;;;;30.25;69.61;100234.08;714114;1201;114376;-77
2021/07/06 10:12:46;;;;;;;5.47;3.57;;;;;;;30.24;69.14;100204.61;714364;1199;114773;-77
2021/07/06 10:27:52;;;;;;;6.25;3.70;;;;;;;31.21;67.84;100201.04;714047;1200;115379;-76
2021/07/06 10:42:56;;;;;;;4.03;3.63;;;;;;;31.96;65.47;100189.34;714332;1199;114324;-79
2021/07/06 10:57:59;;;;;;;4.67;4.03;;;;;;;32.45;64.65;100197.72;714035;1199;114160;-79
2021/07/06 11:13:12;;;;;;;4.20;2.97;;;;;;;31.81;63.32;100189.45;714027;1205;113636;-79
2021/07/06 11:28:26;;;;;;;3.03;2.77;;;;;;;32.50;62.28;100170.53;714227;1206;113763;-79
2021/07/06 11:43:30;;;;;;;3.23;2.70;;;;;;;31.73;59.86;100165.63;714405;1204;113693;-79
2021/07/06 11:58:34;;;;;;;14.98;4.60;;;;;;;32.15;58.73;100153.41;714463;1184;113381;-79
2021/07/06 12:13:47;;;;;;;4.45;2.48;;;;;;;31.63;57.45;100148.33;714160;1202;113902;-79
2021/07/06 12:28:49;;;;;;;3.93;2.93;;;;;;;32.05;56.71;100143.45;714179;1199;113602;-79
2021/07/06 12:43:56;;;;;;;7.83;5.37;;;;;;;32.62;56.27;100134.87;714325;1203;113441;-87
2021/07/06 12:59:17;;;;;;;;;;;;;;;32.58;53.85;100128.39;714956;1203;114918;-84
2021/07/06 13:14:22;;;;;;;2.53;2.30;;;;;;;32.61;53.81;100139.50;717217;1184;99629;-92
2021/07/06 13:29:24;;;;;;;3.30;2.60;;;;;;;32.98;54.75;100131.78;717144;1178;112420;-92
2021/07/06 13:44:26;;;;;;;4.83;2.55;;;;;;;32.79;54.68;100112.73;726294;1200;114128;-91
2021/07/06 13:59:28;;;;;;;3.43;2.93;;;;;;;32.41;55.24;100109.83;724109;1200;114365;-89
2021/07/06 14:14:31;;;;;;;2.88;2.38;;;;;;;32.84;54.17;100093.67;717145;1200;113816;-89
2021/07/06 14:29:33;;;;;;;3.30;2.43;;;;;;;32.63;54.05;100104.71;717853;1200;115063;-91
2021/07/06 14:44:36;;;;;;;3.25;2.40;;;;;;;32.30;53.86;100101.77;717730;1177;113959;-89
2021/07/06 14:59:38;;;;;;;4.10;2.60;;;;;;;32.17;54.52;100102.44;716412;1200;113193;-85
2021/07/06 15:14:40;;;;;;;2.30;2.10;;;;;;;32.26;54.70;100095.30;716980;1177;113526;-85
2021/07/06 15:29:43;;;;;;;3.73;2.13;;;;;;;32.13;55.18;100088.59;716256;1199;113491;-85
2021/07/06 15:44:45;;;;;;;4.50;2.25;;;;;;;31.68;54.70;100085.95;716049;1200;115088;-76
2021/07/06 15:59:47;;;;;;;2.67;2.47;;;;;;;31.56;54.76;100088.18;714206;1199;114509;-79
2021/07/06 16:14:49;;;;;;;4.00;2.77;;;;;;;31.96;55.13;100078.16;715109;1177;113330;-78
2021/07/06 16:29:51;;;;;;;24.83;13.08;;;;;;;31.59;55.43;100078.68;717112;1178;113714;-79
2021/07/06 16:44:54;;;;;;;5.15;3.15;;;;;;;31.69;56.57;100082.16;714085;1191;113724;-77
2021/07/06 18:01:20;;;;;;;14.30;9.73;;;;;;;29.62;64.98;100128.75;714091;1177;113640;-76
2021/07/06 18:16:22;;;;;;;9.18;6.05;;;;;;;29.00;66.76;100144.67;714083;1200;113673;-83
2021/07/06 18:31:25;;;;;;;9.27;7.17;;;;;;;28.21;70.82;100157.82;715700;1199;113718;-81
2021/07/06 18:46:30;;;;;;;10.03;7.77;;;;;;;27.55;71.53;100164.91;714509;1202;114172;-83
2021/07/06 19:01:33;;;;;;;23.95;8.05;;;;;;;26.80;75.40;100169.80;716550;1178;113997;-82
2021/07/06 19:16:36;;;;;;;10.93;7.00;;;;;;;25.90;80.03;100178.44;716888;1177;113879;-84
2021/07/06 19:31:38;;;;;;;7.80;7.00;;;;;;;25.34;82.48;100180.81;716261;1200;114082;-88
2021/07/06 19:46:41;;;;;;;15.40;10.30;;;;;;;25.18;83.42;100193.06;716153;1177;113896;-87
2021/07/06 20:01:44;;;;;;;12.95;8.88;;;;;;;24.89;84.37;100192.94;716246;1189;114011;-88
2021/07/06 20:16:46;;;;;;;9.93;8.93;;;;;;;24.57;85.51;100197.75;715967;1176;113972;-87
2021/07/06 20:31:51;;;;;;;11.85;8.28;;;;;;;24.41;85.65;100188.52;716024;1200;114491;-86
2021/07/06 20:46:53;;;;;;;6.93;6.13;;;;;;;24.16;85.94;100181.44;716087;1200;114963;-84
2021/07/06 21:01:55;;;;;;;8.60;5.77;;;;;;;23.95;86.48;100174.72;715503;1179;113778;-86
2021/07/06 21:16:58;;;;;;;6.45;5.28;;;;;;;23.71;87.11;100179.93;716180;1206;115077;-86
2021/07/06 21:32:01;;;;;;;5.38;4.88;;;;;;;23.28;88.07;100188.05;716136;1177;114353;-86
2021/07/06 21:47:04;;;;;;;4.98;4.48;;;;;;;23.08;90.19;100178.32;716025;1183;114610;-87
2021/07/06 22:02:06;;;;;;;5.67;4.77;;;;;;;22.92;91.34;100193.08;715897;1189;114823;-87
2021/07/06 22:17:09;;;;;;;7.10;4.90;;;;;;;22.88;91.75;100199.91;715941;1199;113866;-86
2021/07/06 22:32:12;;;;;;;6.63;5.50;;;;;;;22.77;92.67;100206.78;716148;1200;114136;-86
2021/07/06 22:47:14;;;;;;;5.70;5.10;;;;;;;22.57;93.81;100204.27;717039;1205;113713;-88
2021/07/06 23:02:16;;;;;;;7.83;5.45;;;;;;;22.45;94.60;100190.78;716441;1202;114531;-90
2021/07/06 23:17:19;;;;;;;6.27;5.60;;;;;;;22.25;96.39;100212.22;715663;1202;115453;-92
2021/07/06 23:32:21;;;;;;;8.93;5.80;;;;;;;22.22;97.05;100231.36;715847;1184;113934;-90
2021/07/06 23:47:24;;;;;;;11.60;7.20;;;;;;;22.14;98.17;100235.09;715902;1199;114258;-90
